Time;durP1;ratioP1;P1;durP2;ratioP2;P2;SDS_P1;SDS_P2;PMS_P1;PMS_P2;Temp;Humidity;BMP_temperature;BMP_pressure;BME280_temperature;BME280_humidity;BME280_pressure;Samples;Min_cycle;Max_cycle;Signal;HPM_P1;HPM_P2
2021/07/19 00:00:59;;;;;;;5.67;3.17;;;;;;;17.84;69.53;102285.16;5024866;28;20184;-70
2021/07/19 00:03:24;;;;;;;6.43;3.67;;;;;;;17.20;69.73;102215.31;5024901;28;20540;-69
2021/07/19 00:05:49;;;;;;;9.10;3.80;;;;;;;17.47;69.34;102275.78;5024947;28;20237;-69
2021/07/19 00:08:15;;;;;;;4.53;2.77;;;;;;;17.77;69.49;102283.50;5039669;28;20690;-69
2021/07/19 00:10:40;;;;;;;7.43;3.63;;;;;;;17.84;68.83;102293.28;5023288;28;20184;-69
2021/07/19 00:13:06;;;;;;;6.37;3.80;;;;;;;17.72;69.18;102294.13;5023964;28;20215;-68
2021/07/19 00:15:31;;;;;;;6.37;3.47;;;;;;;17.70;69.65;102301.63;5025054;28;20185;-68
2021/07/19 00:17:57;;;;;;;6.20;3.40;;;;;;;17.44;69.75;102270.78;5009850;28;20209;-68
2021/07/19 00:20:24;;;;;;;7.77;4.03;;;;;;;17.63;68.89;102297.06;5022669;28;20184;-68
2021/07/19 00:22:51;;;;;;;5.87;3.40;;;;;;;17.50;69.13;102285.38;5024157;28;20438;-68
2021/07/19 00:25:17;;;;;;;4.30;3.20;;;;;;;17.60;69.94;102302.06;5024856;28;20439;-69
2021/07/19 00:27:44;;;;;;;5.83;3.27;;;;;;;17.31;70.08;102296.03;5020153;28;20533;-69
2021/07/19 00:30:13;;;;;;;6.50;3.60;;;;;;;17.46;69.78;102301.25;5026642;28;20834;-69
2021/07/19 00:32:39;;;;;;;6.93;3.90;;;;;;;17.32;70.20;102305.81;5023231;28;20509;-69
2021/07/19 00:35:06;;;;;;;4.70;3.33;;;;;;;17.35;70.07;102291.84;5027629;28;20439;-69
2021/07/19 00:37:31;;;;;;;5.97;3.50;;;;;;;17.31;70.11;102277.03;5022929;28;20223;-69
2021/07/19 00:39:58;;;;;;;7.20;3.20;;;;;;;17.31;69.67;102304.16;5027713;28;20439;-69
2021/07/19 00:42:23;;;;;;;11.30;4.27;;;;;;;17.12;69.15;102248.03;5024075;28;20184;-69
2021/07/19 00:44:49;;;;;;;7.10;3.93;;;;;;;16.82;69.83;102217.81;5024945;28;20431;-69
2021/07/19 00:47:16;;;;;;;6.07;3.57;;;;;;;17.51;69.17;102304.16;5019743;28;20232;-68
2021/07/19 00:49:43;;;;;;;7.23;3.30;;;;;;;17.36;69.30;102304.38;5022053;28;20196;-69
2021/07/19 00:52:09;;;;;;;5.07;3.47;;;;;;;17.26;69.77;102301.25;5020654;28;20837;-69
2021/07/19 00:54:37;;;;;;;5.83;3.40;;;;;;;17.22;69.47;102301.88;5025514;28;20449;-69
2021/07/19 00:57:04;;;;;;;7.93;3.60;;;;;;;17.05;70.16;102291.44;5024089;28;20289;-69
2021/07/19 00:59:32;;;;;;;6.50;4.27;;;;;;;17.07;69.37;102305.63;5020996;28;20446;-69
2021/07/19 01:02:01;;;;;;;8.30;3.93;;;;;;;17.11;68.65;102306.03;5024344;28;20443;-69
2021/07/19 01:04:29;;;;;;;7.40;4.33;;;;;;;17.10;69.52;102307.91;5024253;28;20439;-68
2021/07/19 01:07:00;;;;;;;6.10;3.90;;;;;;;17.15;69.27;102302.72;5023338;28;20459;-69
2021/07/19 01:09:28;;;;;;;9.83;4.47;;;;;;;16.96;69.81;102302.69;5025461;28;20435;-69
2021/07/19 01:11:56;;;;;;;5.40;3.60;;;;;;;17.04;69.56;102300.59;5025527;28;20462;-69
2021/07/19 01:14:21;;;;;;;5.37;3.60;;;;;;;17.02;69.66;102288.31;5025175;28;20549;-68
2021/07/19 01:16:47;;;;;;;7.93;4.50;;;;;;;16.90;69.92;102293.50;5023303;28;21313;-68
2021/07/19 01:19:12;;;;;;;7.50;3.63;;;;;;;16.82;70.43;102283.66;5026488;28;20183;-69
2021/07/19 01:21:59;;;;;;;8.43;4.10;;;;;;;16.70;70.28;102275.28;5025606;28;20171;-69
2021/07/19 01:25:02;;;;;;;8.30;4.93;;;;;;;16.84;70.51;102299.75;5025599;28;20239;-69
2021/07/19 01:27:58;;;;;;;6.97;3.87;;;;;;;16.84;69.98;102299.75;5023516;28;20512;-69
2021/07/19 01:30:27;;;;;;;5.10;3.47;;;;;;;16.78;70.68;102293.25;5023005;28;20514;-69
2021/07/19 01:32:53;;;;;;;6.23;3.90;;;;;;;16.58;70.61;102255.25;5024522;28;20502;-69
2021/07/19 01:35:20;;;;;;;7.17;4.13;;;;;;;16.88;70.78;102290.16;5024085;28;20482;-69
2021/07/19 01:37:47;;;;;;;9.47;4.70;;;;;;;16.83;69.51;102293.47;5019755;28;20462;-69
2021/07/19 01:40:13;;;;;;;8.97;4.40;;;;;;;16.77;69.91;102294.28;5026866;28;20492;-70
2021/07/19 01:42:40;;;;;;;9.10;4.33;;;;;;;16.92;69.75;102292.25;5022590;28;20466;-69
2021/07/19 01:45:07;;;;;;;5.53;4.27;;;;;;;16.39;70.65;102218.09;5024354;28;20519;-69
2021/07/19 01:47:33;;;;;;;7.03;3.87;;;;;;;16.67;71.21;102281.09;5021519;28;20447;-70
2021/07/19 01:50:00;;;;;;;7.30;3.50;;;;;;;16.77;70.81;102282.63;5021814;28;20486;-70
2021/07/19 01:52:26;;;;;;;5.17;3.80;;;;;;;16.35;71.46;102239.34;5024805;28;20566;-70
2021/07/19 01:54:52;;;;;;;7.53;4.30;;;;;;;16.53;71.55;102270.44;5024216;28;20450;-69
2021/07/19 01:57:18;;;;;;;5.93;3.97;;;;;;;16.40;71.37;102233.28;5024810;28;20556;-69
2021/07/19 01:59:44;;;;;;;5.70;4.17;;;;;;;16.49;71.34;102270.84;5021734;28;21121;-70
2021/07/19 02:02:11;;;;;;;6.10;3.97;;;;;;;16.59;71.55;102281.28;5021138;28;20307;-70
2021/07/19 02:04:37;;;;;;;5.40;3.90;;;;;;;16.45;71.91;102280.41;5025643;28;20797;-69
2021/07/19 02:07:04;;;;;;;7.30;4.17;;;;;;;16.38;72.14;102284.13;5021866;28;20458;-69
2021/07/19 02:09:33;;;;;;;6.23;4.00;;;;;;;16.48;72.28;102276.44;5024887;28;20195;-70
2021/07/19 02:12:03;;;;;;;6.27;3.60;;;;;;;15.92;71.81;102188.16;5022539;28;20459;-69
2021/07/19 02:14:29;;;;;;;6.47;3.90;;;;;;;16.43;71.96;102277.06;5024965;28;20478;-70
2021/07/19 02:16:57;;;;;;;6.03;3.80;;;;;;;16.52;71.14;102276.88;5023972;28;20483;-69
2021/07/19 02:19:26;;;;;;;8.87;4.27;;;;;;;16.48;71.16;102281.88;5030784;28;20706;-69
2021/07/19 02:21:51;;;;;;;9.43;4.60;;;;;;;16.06;71.63;102258.59;5027868;28;20509;-70
2021/07/19 02:24:20;;;;;;;4.87;3.50;;;;;;;16.33;71.63;102289.31;5028125;28;20935;-69
2021/07/19 02:26:46;;;;;;;5.47;3.50;;;;;;;16.46;71.13;102290.22;5028379;28;20866;-69
2021/07/19 02:29:12;;;;;;;8.40;3.60;;;;;;;16.39;71.15;102292.03;5025976;28;20524;-70
2021/07/19 02:31:39;;;;;;;6.50;3.77;;;;;;;16.33;72.00;102287.44;5027788;28;20967;-69
2021/07/19 02:34:05;;;;;;;8.67;5.00;;;;;;;16.43;71.19;102287.91;5020109;28;21024;-69
2021/07/19 02:36:32;;;;;;;6.17;4.10;;;;;;;16.27;71.68;102280.94;5027425;28;20493;-69
2021/07/19 02:38:58;;;;;;;6.63;4.00;;;;;;;15.88;72.73;102253.69;5028367;28;20215;-69
2021/07/19 02:41:25;;;;;;;6.63;4.00;;;;;;;16.03;72.59;102278.75;5027133;28;20431;-69
2021/07/19 02:43:53;;;;;;;4.83;3.97;;;;;;;16.32;71.91;102284.94;5021354;28;20836;-69
2021/07/19 02:46:22;;;;;;;7.10;4.27;;;;;;;15.85;72.16;102232.44;5026247;28;20469;-69
2021/07/19 02:48:52;;;;;;;6.73;3.60;;;;;;;16.11;72.21;102286.69;5026742;28;20441;-69
2021/07/19 02:51:18;;;;;;;3.97;3.43;;;;;;;15.67;72.70;102239.16;5028618;28;20871;-69
2021/07/19 02:53:44;;;;;;;4.37;3.77;;;;;;;16.01;72.28;102288.94;5026215;28;20458;-69
2021/07/19 02:56:10;;;;;;;5.87;3.60;;;;;;;16.04;72.61;102283.97;5024560;28;20475;-69
2021/07/19 02:58:36;;;;;;;5.70;3.63;;;;;;;15.76;72.52;102220.94;5026487;28;20184;-69
2021/07/19 03:01:03;;;;;;;6.83;4.20;;;;;;;16.07;72.91;102269.19;5025262;28;20445;-69
2021/07/19 03:03:30;;;;;;;5.60;3.67;;;;;;;15.87;72.91;102252.03;5025193;28;20176;-68
2021/07/19 03:06:00;;;;;;;5.47;3.93;;;;;;;16.14;71.93;102286.31;5020829;28;20439;-69
2021/07/19 03:08:34;;;;;;;5.63;3.47;;;;;;;16.09;72.73;102291.50;5027988;28;20427;-69
2021/07/19 03:11:01;;;;;;;4.93;3.30;;;;;;;15.91;73.27;102275.78;5027342;28;20434;-69
2021/07/19 03:13:29;;;;;;;5.80;3.67;;;;;;;15.93;72.45;102294.50;5026377;28;20477;-69
2021/07/19 03:15:56;;;;;;;4.97;3.43;;;;;;;16.07;72.79;102298.97;5023966;28;20435;-69
2021/07/19 03:18:23;;;;;;;7.03;3.40;;;;;;;15.46;72.94;102233.84;5027251;28;20443;-69
2021/07/19 03:20:50;;;;;;;5.13;3.53;;;;;;;15.21;73.15;102166.69;5024942;28;20454;-69
2021/07/19 03:23:19;;;;;;;7.90;3.67;;;;;;;15.96;72.68;102300.34;5026570;28;20423;-69
2021/07/19 03:25:45;;;;;;;6.87;3.40;;;;;;;15.74;72.87;102272.56;5023974;28;20439;-69
2021/07/19 03:28:11;;;;;;;8.20;3.40;;;;;;;15.99;72.57;102283.72;5027360;28;20462;-69
2021/07/19 03:30:37;;;;;;;5.70;3.40;;;;;;;16.05;72.93;102301.03;5024750;28;20469;-69
2021/07/19 03:33:04;;;;;;;6.70;3.30;;;;;;;16.02;73.08;102286.03;5024857;28;20467;-69
2021/07/19 03:35:34;;;;;;;3.93;2.90;;;;;;;16.22;72.34;102305.06;5020957;28;20438;-70
2021/07/19 03:38:01;;;;;;;7.60;3.30;;;;;;;16.00;73.10;102293.53;5026501;28;20470;-69
2021/07/19 03:40:28;;;;;;;4.80;3.27;;;;;;;15.96;73.54;102294.13;5025195;28;20446;-69
2021/07/19 03:42:57;;;;;;;7.57;3.33;;;;;;;16.08;73.10;102275.44;5021890;28;20439;-69
2021/07/19 03:45:23;;;;;;;4.43;3.10;;;;;;;16.34;72.86;102296.38;5021511;28;20440;-69
2021/07/19 03:47:49;;;;;;;5.80;3.63;;;;;;;16.38;72.24;102297.66;5027898;28;20463;-69
2021/07/19 03:50:15;;;;;;;5.63;3.83;;;;;;;16.40;72.72;102304.56;5041184;28;20447;-69
2021/07/19 03:52:42;;;;;;;5.50;2.87;;;;;;;16.37;72.08;102304.09;5024440;28;20585;-69
2021/07/19 03:55:09;;;;;;;5.60;3.40;;;;;;;16.15;72.76;102263.63;5026240;28;20531;-69
2021/07/19 03:57:36;;;;;;;7.23;2.70;;;;;;;16.28;72.47;102301.56;5022747;28;20458;-69
2021/07/19 04:00:08;;;;;;;5.87;3.50;;;;;;;16.43;72.42;102296.03;5021371;28;20532;-70
2021/07/19 04:02:36;;;;;;;5.90;2.93;;;;;;;16.39;72.08;102300.16;5025880;28;20577;-69
2021/07/19 04:05:07;;;;;;;5.60;2.97;;;;;;;16.45;71.55;102295.81;5028405;28;20520;-70
2021/07/19 04:07:44;;;;;;;9.33;2.93;;;;;;;16.22;71.40;102263.63;5024468;28;20459;-70
2021/07/19 04:10:11;;;;;;;7.87;3.03;;;;;;;16.41;71.74;102286.44;5026357;28;20434;-70
2021/07/19 04:12:40;;;;;;;5.03;2.73;;;;;;;16.22;72.54;102296.13;5024231;28;20471;-70
2021/07/19 04:15:06;;;;;;;8.93;3.20;;;;;;;16.12;71.73;102238.84;5025558;28;20878;-69
2021/07/19 04:17:32;;;;;;;7.17;3.40;;;;;;;16.61;70.48;102291.94;5022052;28;20950;-70
2021/07/19 04:19:58;;;;;;;5.63;3.27;;;;;;;16.66;71.31;102294.84;5024107;28;20467;-70
2021/07/19 04:22:24;;;;;;;6.90;3.17;;;;;;;16.61;71.11;102302.75;5024651;28;20204;-70
2021/07/19 04:24:50;;;;;;;4.23;2.73;;;;;;;16.72;70.51;102294.00;5026308;28;20962;-69
2021/07/19 04:27:17;;;;;;;5.67;2.87;;;;;;;16.66;69.97;102292.13;5024770;28;20469;-69
2021/07/19 04:29:48;;;;;;;6.63;3.70;;;;;;;16.40;71.51;102255.81;5020928;28;20199;-70
2021/07/19 04:32:14;;;;;;;5.60;3.00;;;;;;;16.37;70.45;102253.50;5023886;28;20521;-71
2021/07/19 04:34:41;;;;;;;5.13;2.93;;;;;;;16.57;70.41;102280.63;5024400;28;20443;-70
2021/07/19 04:37:09;;;;;;;3.90;2.60;;;;;;;16.73;70.34;102291.13;5024140;28;20201;-70
2021/07/19 04:39:37;;;;;;;5.73;2.50;;;;;;;16.59;70.04;102261.50;5020825;28;20549;-69
2021/07/19 04:42:07;;;;;;;5.60;2.73;;;;;;;16.72;69.97;102297.59;5022766;28;20427;-69
2021/07/19 04:44:34;;;;;;;6.47;3.60;;;;;;;16.79;69.72;102281.38;5026856;28;20945;-70
2021/07/19 04:47:00;;;;;;;6.87;2.97;;;;;;;16.20;69.74;102185.34;5020763;28;20459;-70
2021/07/19 04:49:26;;;;;;;7.40;2.40;;;;;;;16.66;68.38;102262.31;5023846;28;20440;-70
2021/07/19 04:51:52;;;;;;;9.47;2.20;;;;;;;16.56;68.29;102286.28;5023104;28;20208;-70
2021/07/19 04:54:22;;;;;;;4.20;2.43;;;;;;;16.79;67.87;102289.50;5023505;28;20510;-70
2021/07/19 04:56:51;;;;;;;2.20;1.80;;;;;;;16.64;67.53;102251.72;5017282;28;20204;-70
2021/07/19 04:59:19;;;;;;;5.83;2.70;;;;;;;17.01;66.98;102287.47;5023060;28;20443;-70
2021/07/19 05:01:49;;;;;;;8.23;2.90;;;;;;;16.61;67.44;102256.72;5024156;28;20489;-70
2021/07/19 05:04:17;;;;;;;5.63;2.30;;;;;;;16.93;68.05;102279.53;5028421;28;20459;-70
2021/07/19 05:06:50;;;;;;;4.03;2.20;;;;;;;16.62;68.63;102255.66;5027068;28;20442;-70
2021/07/19 05:09:17;;;;;;;2.47;2.10;;;;;;;16.68;68.96;102263.78;5024708;28;20457;-69
2021/07/19 05:11:45;;;;;;;3.13;2.40;;;;;;;16.79;69.91;102285.97;5022549;28;20832;-70
2021/07/19 05:14:11;;;;;;;5.20;2.73;;;;;;;16.85;68.32;102288.69;5019482;28;20430;-70
2021/07/19 05:16:37;;;;;;;4.80;2.23;;;;;;;17.01;68.73;102289.31;5025834;28;20481;-70
2021/07/19 05:19:04;;;;;;;3.00;1.87;;;;;;;16.80;68.91;102284.91;5021294;28;20554;-69
2021/07/19 05:21:33;;;;;;;4.90;2.70;;;;;;;16.33;69.22;102197.25;5029262;28;21002;-69
2021/07/19 05:23:59;;;;;;;3.43;1.93;;;;;;;16.60;69.19;102236.88;5015537;28;20954;-70
2021/07/19 05:26:24;;;;;;;4.47;2.57;;;;;;;16.82;69.22;102286.38;5017325;28;20544;-70
2021/07/19 05:28:50;;;;;;;6.90;2.80;;;;;;;16.55;68.34;102250.25;5015114;28;20184;-70
2021/07/19 05:31:15;;;;;;;4.30;2.07;;;;;;;17.14;67.63;102283.94;5019354;28;20295;-70
2021/07/19 05:33:41;;;;;;;3.07;2.00;;;;;;;16.99;67.91;102267.03;5016069;28;20180;-70
2021/07/19 05:36:06;;;;;;;2.97;2.30;;;;;;;17.14;68.40;102279.34;5011983;28;20204;-70
2021/07/19 05:38:31;;;;;;;3.53;2.23;;;;;;;17.14;68.29;102264.94;5022205;28;20253;-70
2021/07/19 05:40:57;;;;;;;5.03;2.40;;;;;;;17.25;67.34;102283.31;5027636;28;20531;-70
2021/07/19 05:43:22;;;;;;;6.90;2.57;;;;;;;17.44;65.71;102283.50;5024084;28;20185;-69
2021/07/19 05:45:48;;;;;;;5.30;2.47;;;;;;;17.18;66.75;102249.91;5025436;28;20180;-70
2021/07/19 05:48:13;;;;;;;4.17;2.23;;;;;;;17.44;67.19;102287.03;5025919;28;20208;-69
2021/07/19 05:50:39;;;;;;;6.70;2.37;;;;;;;16.97;68.14;102242.00;5020356;28;20644;-70
2021/07/19 05:53:05;;;;;;;7.53;2.40;;;;;;;17.27;66.87;102291.22;5027754;28;20223;-70
2021/07/19 05:55:31;;;;;;;3.50;2.00;;;;;;;17.25;66.50;102294.16;5029947;28;20731;-71
2021/07/19 05:57:59;;;;;;;4.60;2.20;;;;;;;17.46;64.63;102289.56;5018381;28;20549;-70
2021/07/19 06:00:25;;;;;;;3.03;2.00;;;;;;;17.33;65.91;102285.81;5018208;28;20656;-70
2021/07/19 06:02:50;;;;;;;6.97;2.17;;;;;;;17.49;66.15;102298.13;5015953;28;20953;-70
2021/07/19 06:05:19;;;;;;;6.20;1.93;;;;;;;17.47;64.40;102292.06;5018794;28;20454;-69
2021/07/19 06:07:45;;;;;;;8.73;2.63;;;;;;;16.95;64.98;102220.50;5016149;28;20212;-70
2021/07/19 06:10:12;;;;;;;4.17;2.30;;;;;;;17.42;63.26;102264.75;5034337;28;20838;-69
2021/07/19 06:12:38;;;;;;;3.23;1.87;;;;;;;17.09;65.02;102215.94;5015153;28;20466;-70
2021/07/19 06:15:06;;;;;;;4.30;3.13;;;;;;;17.65;64.37;102304.16;5016375;28;20442;-70
2021/07/19 06:17:33;;;;;;;3.63;2.00;;;;;;;17.50;65.36;102313.38;5012224;28;20459;-70
2021/07/19 06:20:00;;;;;;;2.93;2.37;;;;;;;17.55;65.34;102296.44;5019172;28;20470;-70
2021/07/19 06:22:25;;;;;;;4.43;2.00;;;;;;;17.59;65.93;102305.84;5016467;28;20481;-70
2021/07/19 06:24:51;;;;;;;5.40;2.40;;;;;;;17.51;64.81;102295.22;5025475;28;20475;-69
2021/07/19 06:27:18;;;;;;;5.93;2.23;;;;;;;17.72;63.77;102319.38;5020498;28;20295;-69
2021/07/19 06:29:43;;;;;;;4.53;2.17;;;;;;;17.45;64.95;102266.22;5017744;28;20443;-70
2021/07/19 06:32:09;;;;;;;9.10;2.80;;;;;;;17.55;62.88;102299.97;5021005;28;20462;-71
2021/07/19 06:34:34;;;;;;;5.17;2.37;;;;;;;17.65;64.07;102298.72;5023570;28;20711;-71
2021/07/19 06:36:59;;;;;;;3.70;2.43;;;;;;;17.65;62.76;102305.00;5026196;28;20219;-69
2021/07/19 06:39:25;;;;;;;4.10;2.00;;;;;;;17.70;61.17;102296.22;5025816;28;20223;-70
2021/07/19 06:41:50;;;;;;;3.53;1.90;;;;;;;17.05;60.60;102174.88;5025989;28;20184;-70
2021/07/19 06:44:16;;;;;;;7.37;3.03;;;;;;;17.92;60.99;102300.38;5026861;28;20191;-70
2021/07/19 06:46:41;;;;;;;3.53;2.20;;;;;;;17.71;60.80;102270.75;5024648;28;20583;-70
2021/07/19 06:49:06;;;;;;;7.10;2.33;;;;;;;17.62;60.88;102262.00;5028421;28;20231;-69
2021/07/19 06:51:32;;;;;;;3.13;2.00;;;;;;;17.86;61.44;102306.66;5025752;28;20589;-69
2021/07/19 06:53:57;;;;;;;4.17;2.10;;;;;;;17.97;63.88;102305.19;5024176;28;20188;-71
2021/07/19 06:56:23;;;;;;;3.77;2.30;;;;;;;17.97;62.93;102308.75;5022868;28;20247;-71
2021/07/19 06:58:48;;;;;;;4.80;2.20;;;;;;;18.07;61.06;102287.41;5027329;28;20216;-70
2021/07/19 07:01:14;;;;;;;4.50;2.20;;;;;;;17.64;59.84;102240.91;5029500;28;20667;-70
2021/07/19 07:03:39;;;;;;;3.70;2.27;;;;;;;17.88;61.64;102279.28;5031603;28;20557;-70
2021/07/19 07:06:04;;;;;;;5.93;2.30;;;;;;;17.83;62.47;102316.06;5024844;28;20253;-70
2021/07/19 07:08:30;;;;;;;2.37;1.60;;;;;;;18.11;60.52;102309.53;5028333;28;20220;-69
2021/07/19 07:10:57;;;;;;;4.47;2.17;;;;;;;17.87;62.55;102300.19;5025766;28;20192;-70
2021/07/19 07:13:22;;;;;;;5.87;2.23;;;;;;;17.91;61.32;102314.19;5030416;28;20592;-70
2021/07/19 07:15:49;;;;;;;4.20;2.07;;;;;;;17.95;60.09;102304.56;5023952;28;20435;-70
2021/07/19 07:18:15;;;;;;;3.33;1.90;;;;;;;18.09;59.84;102311.63;5022718;28;20495;-70
2021/07/19 07:20:40;;;;;;;4.43;2.20;;;;;;;18.06;59.93;102312.06;5027760;28;20488;-70
2021/07/19 07:23:06;;;;;;;3.87;2.00;;;;;;;18.10;59.91;102313.28;5025766;28;20215;-70
2021/07/19 07:25:31;;;;;;;3.90;2.07;;;;;;;18.16;60.76;102319.75;5024527;28;20197;-70
2021/07/19 07:27:57;;;;;;;3.00;1.77;;;;;;;18.09;61.11;102287.19;5029994;28;20715;-70
2021/07/19 07:30:25;;;;;;;3.43;2.27;;;;;;;18.12;60.33;102289.47;5022260;28;20439;-70
2021/07/19 07:32:50;;;;;;;5.20;2.27;;;;;;;17.82;59.76;102240.31;5026428;28;21037;-70
2021/07/19 07:35:16;;;;;;;4.70;2.57;;;;;;;18.23;59.46;102272.53;5027020;28;20443;-70
2021/07/19 07:37:42;;;;;;;7.30;2.10;;;;;;;18.32;59.88;102297.56;5023652;28;20254;-71
2021/07/19 07:40:10;;;;;;;4.57;2.07;;;;;;;18.47;60.62;102313.59;5022927;28;20189;-70
2021/07/19 07:42:36;;;;;;;2.83;1.93;;;;;;;18.53;60.68;102308.13;5024186;28;20199;-70
2021/07/19 07:45:03;;;;;;;5.37;2.10;;;;;;;18.42;59.99;102286.22;5022198;28;20590;-70
2021/07/19 07:47:28;;;;;;;3.93;2.20;;;;;;;18.51;60.37;102310.22;5024290;28;20537;-70
2021/07/19 07:49:54;;;;;;;4.23;2.20;;;;;;;18.59;60.67;102321.88;5025552;28;20470;-70
2021/07/19 07:52:20;;;;;;;5.83;1.87;;;;;;;18.34;61.97;102308.19;5023508;28;20744;-70
2021/07/19 07:54:45;;;;;;;3.23;1.83;;;;;;;18.42;61.07;102313.38;5024735;28;20187;-70
2021/07/19 07:57:11;;;;;;;5.30;2.10;;;;;;;18.11;61.73;102238.94;5023885;28;20458;-70
2021/07/19 07:59:37;;;;;;;8.50;2.20;;;;;;;18.22;60.27;102237.41;5024191;28;20192;-70
2021/07/19 08:02:03;;;;;;;6.37;2.10;;;;;;;18.57;62.11;102324.81;5024090;28;20500;-70
2021/07/19 08:04:29;;;;;;;5.13;2.43;;;;;;;18.37;60.60;102321.34;5025109;28;20200;-70
2021/07/19 08:06:59;;;;;;;8.97;2.00;;;;;;;18.28;60.85;102321.59;5023939;28;20473;-69
2021/07/19 08:09:25;;;;;;;5.63;2.17;;;;;;;18.19;61.80;102314.72;5032598;28;20455;-70
2021/07/19 08:11:51;;;;;;;8.60;3.03;;;;;;;18.45;60.87;102321.94;5026522;28;20471;-70
2021/07/19 08:14:17;;;;;;;6.00;2.10;;;;;;;18.14;60.92;102240.38;5027212;28;20238;-70
2021/07/19 08:16:42;;;;;;;5.10;1.97;;;;;;;18.61;59.11;102298.88;5026125;28;20463;-70
2021/07/19 08:19:09;;;;;;;5.57;2.20;;;;;;;17.93;58.57;102204.31;5027652;28;20664;-70
2021/07/19 08:21:36;;;;;;;4.30;1.90;;;;;;;18.52;58.30;102311.06;5028152;28;20192;-70
2021/07/19 08:24:01;;;;;;;3.47;1.63;;;;;;;18.76;58.69;102316.81;5029185;28;20474;-70
2021/07/19 08:26:27;;;;;;;3.40;1.70;;;;;;;18.61;58.64;102260.84;5025915;28;20488;-70
2021/07/19 08:28:54;;;;;;;7.67;2.57;;;;;;;18.86;58.06;102315.31;5021229;28;20283;-71
2021/07/19 08:31:20;;;;;;;3.83;1.90;;;;;;;18.41;57.16;102270.97;5022301;28;20271;-71
2021/07/19 08:33:45;;;;;;;3.47;2.30;;;;;;;18.60;57.72;102312.69;5021878;28;20453;-70
2021/07/19 08:36:10;;;;;;;5.10;2.10;;;;;;;18.62;58.40;102305.16;5025310;28;22715;-70
2021/07/19 08:38:36;;;;;;;4.30;2.00;;;;;;;18.65;58.60;102283.81;5025211;28;20230;-71
2021/07/19 08:41:01;;;;;;;4.50;2.27;;;;;;;18.86;59.73;102289.97;5029071;28;20309;-70
2021/07/19 08:43:27;;;;;;;3.73;1.90;;;;;;;18.29;59.26;102216.50;5027808;28;20200;-70
2021/07/19 08:45:52;;;;;;;3.30;1.80;;;;;;;18.52;60.28;102273.03;5023834;28;20283;-70
2021/07/19 08:48:18;;;;;;;5.30;2.77;;;;;;;18.22;56.57;102240.13;5024683;28;20246;-70
2021/07/19 08:50:45;;;;;;;5.13;1.87;;;;;;;18.58;54.76;102274.03;5021386;28;20180;-70
2021/07/19 08:53:11;;;;;;;6.10;1.97;;;;;;;18.86;55.38;102301.72;5023724;28;20212;-70
2021/07/19 08:55:36;;;;;;;2.60;1.80;;;;;;;18.63;55.00;102258.75;5023662;28;20453;-70
2021/07/19 08:58:03;;;;;;;3.37;1.90;;;;;;;18.89;58.08;102298.56;5020817;28;25494;-70
2021/07/19 09:00:29;;;;;;;3.03;2.20;;;;;;;18.69;56.05;102274.19;5023605;28;20227;-70
2021/07/19 09:02:54;;;;;;;3.03;2.43;;;;;;;18.84;57.40;102294.84;5021918;28;20446;-70
2021/07/19 09:05:20;;;;;;;2.17;1.60;;;;;;;18.90;57.26;102294.78;5019650;28;20458;-70
2021/07/19 09:07:46;;;;;;;7.30;2.87;;;;;;;18.57;57.17;102291.38;5017822;28;20726;-70
2021/07/19 09:10:12;;;;;;;3.87;2.10;;;;;;;18.37;57.20;102234.41;5019935;28;20447;-70
2021/07/19 09:12:41;;;;;;;5.73;2.60;;;;;;;18.66;57.34;102301.78;5022763;28;20231;-71
2021/07/19 09:15:09;;;;;;;3.23;2.30;;;;;;;18.88;56.90;102296.03;5020476;28;20435;-70
2021/07/19 09:17:35;;;;;;;2.30;2.07;;;;;;;19.09;56.27;102297.56;5023709;28;20980;-70
2021/07/19 09:20:00;;;;;;;3.87;2.50;;;;;;;18.57;55.55;102232.44;5020928;28;20437;-70
2021/07/19 09:22:31;;;;;;;4.10;2.37;;;;;;;19.28;55.29;102299.31;5027487;28;20431;-70
2021/07/19 09:25:16;;;;;;;4.27;2.50;;;;;;;19.49;54.86;102292.66;5032278;28;20180;-70
2021/07/19 09:28:06;;;;;;;3.23;2.40;;;;;;;19.58;54.46;102293.19;5020663;28;20458;-70
2021/07/19 09:30:34;;;;;;;5.13;2.90;;;;;;;19.79;55.02;102281.13;5029310;28;20478;-70
2021/07/19 09:33:07;;;;;;;3.50;3.20;;;;;;;19.60;53.47;102285.66;5025617;28;20510;-70
2021/07/19 09:35:35;;;;;;;4.07;3.10;;;;;;;19.51;53.06;102278.84;5030113;28;20450;-70
2021/07/19 09:38:07;;;;;;;4.03;2.80;;;;;;;19.57;53.46;102275.22;5024787;28;21048;-70
2021/07/19 09:40:34;;;;;;;5.33;4.07;;;;;;;19.38;50.86;102277.03;5029562;28;20453;-71
2021/07/19 09:43:11;;;;;;;4.60;3.27;;;;;;;19.41;52.73;102277.47;5029731;28;20443;-70
2021/07/19 09:45:36;;;;;;;3.70;3.40;;;;;;;19.37;52.16;102251.72;5027075;28;20450;-70
2021/07/19 09:48:04;;;;;;;3.90;3.50;;;;;;;19.25;52.84;102180.06;5025692;28;20458;-70
2021/07/19 09:50:47;;;;;;;4.40;3.60;;;;;;;19.84;51.70;102262.19;5029577;28;20207;-70
2021/07/19 09:53:13;;;;;;;3.70;3.40;;;;;;;19.83;51.06;102261.34;5028761;28;20824;-70
2021/07/19 09:55:38;;;;;;;5.40;3.70;;;;;;;20.12;50.41;102263.56;5029069;28;20504;-70
2021/07/19 09:58:05;;;;;;;5.40;3.60;;;;;;;20.07;51.47;102267.78;5024081;28;20524;-70
2021/07/19 10:00:32;;;;;;;3.87;3.57;;;;;;;20.12;52.68;102267.09;5029069;28;20349;-70
2021/07/19 10:02:58;;;;;;;4.33;3.63;;;;;;;19.83;52.44;102242.28;5028892;28;21459;-71
2021/07/19 10:05:29;;;;;;;5.70;3.77;;;;;;;19.69;53.09;102268.00;5028399;28;20438;-70
2021/07/19 10:07:56;;;;;;;6.83;3.80;;;;;;;19.71;53.75;102268.63;5028020;28;20712;-71
2021/07/19 10:10:39;;;;;;;4.67;4.17;;;;;;;19.57;56.69;102276.03;5026732;28;20513;-70
2021/07/19 10:13:09;;;;;;;5.57;4.60;;;;;;;19.43;56.47;102263.63;5027508;28;20823;-70
2021/07/19 10:15:37;;;;;;;5.40;4.17;;;;;;;19.37;56.77;102278.94;5025017;28;20837;-71
2021/07/19 10:18:09;;;;;;;5.07;4.57;;;;;;;18.89;57.20;102240.63;5023675;28;20474;-70
2021/07/19 10:20:36;;;;;;;6.63;4.93;;;;;;;18.95;55.98;102273.22;5028490;28;20438;-71
2021/07/19 10:23:03;;;;;;;5.57;5.07;;;;;;;18.97;56.33;102287.41;5028994;28;20443;-71
2021/07/19 10:25:29;;;;;;;6.17;5.40;;;;;;;18.67;55.70;102208.34;5024761;28;20816;-70
2021/07/19 10:27:55;;;;;;;5.40;4.90;;;;;;;18.56;56.26;102246.25;5026523;28;20459;-70
2021/07/19 10:30:21;;;;;;;10.47;6.07;;;;;;;18.91;56.56;102282.00;5029259;28;20211;-70
2021/07/19 10:32:46;;;;;;;5.60;5.00;;;;;;;18.76;55.56;102257.03;5023468;28;20470;-70
2021/07/19 10:35:12;;;;;;;7.67;5.73;;;;;;;18.66;56.01;102233.00;5026348;28;20274;-71
2021/07/19 10:37:49;;;;;;;7.00;5.67;;;;;;;19.15;55.13;102283.94;5025595;28;20215;-70
2021/07/19 10:40:24;;;;;;;6.00;5.33;;;;;;;18.99;55.11;102261.91;5026049;28;20569;-70
2021/07/19 10:42:49;;;;;;;6.43;5.83;;;;;;;18.65;57.59;102259.34;5024972;28;20430;-70
2021/07/19 10:45:19;;;;;;;6.27;5.63;;;;;;;18.99;56.40;102292.63;5026489;28;20438;-70
2021/07/19 10:47:56;;;;;;;7.87;5.93;;;;;;;18.76;56.92;102267.91;5027037;28;20205;-70
2021/07/19 10:50:27;;;;;;;7.10;5.80;;;;;;;18.87;55.90;102287.06;5026715;28;20576;-70
2021/07/19 10:52:59;;;;;;;6.40;5.60;;;;;;;18.52;58.59;102256.72;5028096;28;20481;-70
2021/07/19 10:55:26;;;;;;;10.17;5.67;;;;;;;18.59;59.56;102290.09;5026810;28;20514;-70
2021/07/19 10:58:03;;;;;;;6.50;5.10;;;;;;;18.48;59.11;102278.03;5022907;28;20459;-70
2021/07/19 11:00:33;;;;;;;5.97;5.37;;;;;;;18.56;59.54;102285.13;5029147;28;20469;-70
2021/07/19 11:03:05;;;;;;;8.63;6.00;;;;;;;18.57;58.74;102285.94;5026792;28;20442;-71
2021/07/19 11:05:39;;;;;;;6.00;5.33;;;;;;;18.32;59.43;102281.25;5026263;28;20522;-70
2021/07/19 11:08:05;;;;;;;7.73;5.53;;;;;;;18.25;60.91;102297.59;5028522;28;20455;-70
2021/07/19 11:10:42;;;;;;;6.47;5.30;;;;;;;18.33;59.97;102287.53;5023645;28;20931;-70
2021/07/19 11:13:08;;;;;;;9.03;5.90;;;;;;;17.99;61.69;102268.66;5025518;28;20466;-70
2021/07/19 11:15:36;;;;;;;6.63;5.73;;;;;;;18.06;62.38;102271.34;5027160;28;20450;-70
2021/07/19 11:18:32;;;;;;;5.97;5.10;;;;;;;18.24;61.32;102287.75;5026352;28;20740;-70
2021/07/19 11:21:00;;;;;;;7.70;7.00;;;;;;;17.96;63.21;102293.47;5024906;28;20439;-70
2021/07/19 11:23:34;;;;;;;7.20;6.47;;;;;;;18.03;63.43;102307.06;5024364;28;20446;-70
2021/07/19 11:26:01;;;;;;;8.23;7.43;;;;;;;17.82;64.22;102308.16;5024144;28;21002;-70